Fox Island, Washington
Current Conditions -  °F | °C
As of 3:53 AM on Friday 28 Nov 2014 (Local Time) from KTIW Reporting Station
Light Rain Light Rain  
Wind Chill: 53°   Ceiling: 3600
Heat Index: 53°   Visibility: 10mi
Dew Point: 50°   Wind: 17mph
Humidity: 89%   Direction: 180°S
Pressure: 29.62"   Gusts: NA
Location:  47.25°N, 122.63°W
Report Text: KTIW 281153Z AUTO 18015KT 10SM -RA BKN036 BKN050 OVC065 12/10 A2962 RMK AO2 RAB30 SLP029 P0000 60004 70018 T01170100 10122 20111 58020 $
Loading
Personal Weather Stations






























Interactive Weather Map New forecast layout! Learn more

10-Day Weather Forecast

Advertisements
Track Severe Weather on mobile